Nome, Alaska
Current Conditions -  °F | °C
As of 4:53 AM on Thursday 30 Oct 2014 (Local Time) from PAOM Reporting Station
Clear Clear  
Wind Chill: -13°   Ceiling: Unl
Heat Index: -9°   Visibility: 10mi
Dew Point: -11°   Wind: 5mph
Humidity: 91%   Direction: 320°NW
Pressure: 29.99"   Gusts: NA
Location:  64.5°N, 165.41°W
Report Text: PAOM 301253Z 32004KT 10SM CLR M09/M11 A2999 RMK SLP156 T10941106 $ VIA AUTODIAL
Loading
Personal Weather Stations






























Interactive Weather Map
Tropical Storm Tracking
New forecast layout! Learn more

10-Day Weather Forecast

Advertisements
Track Severe Weather on mobile